Milan Linate, Italy

3:03 PM CET on November 24, 2014 (GMT +0100)
Peschiera Borromeo - Bellaria (Mi) | Change Station
CLOSE
Current Station
Personal Weather Station
Location: Peschiera Borromeo,
Elevation: 318 ft
Nearby Weather Stations
Active Advisory: Fog

Elev 318 ft 45.42 °N, 9.31 °E | Updated 17 minutes ago

Clear
Clear
56.7 °F
Feels Like 56.7 °F
N
2.0
Wind Variable Wind from WSW
Gusts 7.0 mph

Today
High -- | Low -- °F
--% Chance of Precip.
Yesterday
High -- | Low -- °F
Precip. -- in
7:33 AM 4:45 PM
Waxing Crescent, 5% visible
Pressure 30.18 in
Visibility 5.0 miles
Clouds
Dew Point 50 °F
Humidity 78%
Rainfall 0.00 in
Snow Depth Not available.
UV Not available.
Pollen Not available.
Air Quality Not available.
Flu Activity Not available.
METAR LIML 241350Z 23006KT 8000 NSC 14/08 Q1022 NOSIG

More Conditions Fewer Conditions

Pressure 30.18 in
Visibility 5.0 miles
Clouds
Dew Point 50 °F
Humidity 78%
Rainfall 0.00 in
Snow Depth Not available.
UV Not available.
Pollen Not available.
Air Quality Not available.
Flu Activity Not available.
METAR LIML 241350Z 23006KT 8000 NSC 14/08 Q1022 NOSIG

More Conditions Fewer Conditions

10-Day Weather Forecast

Almanac

Astronomy

Nov. 24, 2014 Rise Set
Actual Time
Civil Twilight
Nautical Twilight
Astronomical Twilight
Moon
Length of Visible Light
Length of Day
Tomorrow will be .
, % of the Moon is Illuminated

Today's Extremes

Country Highs Country Lows

Community

WunderPhotos

Upload Photos

1,773,332 photos uploaded!

WunderBlogs® & News

Nearby

Air Quality

  Air Quality AQ Index Pollutant
Not available.

Snow Depth

Station Depth Elevation

Earthquake Activity

City Distance Mag. Time & Date
Minimum magnitude displayed is 2.5.

Coastal Water Temperatures

Place Temperature

Nearby Weather Stations